Time;durP1;ratioP1;P1;durP2;ratioP2;P2;SDS_P1;SDS_P2;PMS_P1;PMS_P2;Temp;Humidity;BMP_temperature;BMP_pressure;BME280_temperature;BME280_humidity;BME280_pressure;Samples;Min_cycle;Max_cycle;Signal;HPM_P1;HPM_P2
2021/04/13 00:01:11;;;;;;;6.77;4.57;;;5.10;99.90;;;;;;4993341;28;20041;-59
2021/04/13 00:03:56;;;;;;;6.72;5.80;;;5.00;99.90;;;;;;4983174;28;20320;-58
2021/04/13 00:06:47;;;;;;;10.18;5.13;;;4.90;99.90;;;;;;4992998;28;20038;-58
2021/04/13 00:09:21;;;;;;;12.43;5.05;;;5.00;99.90;;;;;;4974564;28;20129;-60
2021/04/13 00:11:51;;;;;;;10.05;5.63;;;4.90;99.90;;;;;;4992776;28;20102;-59
2021/04/13 00:14:20;;;;;;;6.80;5.32;;;4.90;99.90;;;;;;4974617;28;20130;-59
2021/04/13 00:16:47;;;;;;;5.85;5.20;;;4.90;99.90;;;;;;4992954;28;20026;-60
2021/04/13 00:19:12;;;;;;;8.48;4.90;;;4.80;99.90;;;;;;4991819;28;20026;-59
2021/04/13 00:21:42;;;;;;;6.03;4.90;;;4.80;99.90;;;;;;4992274;28;20483;-59
2021/04/13 00:24:14;;;;;;;7.22;5.15;;;4.90;99.90;;;;;;4973871;28;20065;-60
2021/04/13 00:26:50;;;;;;;8.98;5.50;;;4.90;99.90;;;;;;4991127;28;20141;-58
2021/04/13 00:29:20;;;;;;;7.57;5.40;;;4.90;99.90;;;;;;4969725;28;20030;-60
2021/04/13 00:31:49;;;;;;;8.88;5.03;;;4.90;99.90;;;;;;4975077;28;20026;-59
2021/04/13 00:34:17;;;;;;;9.15;5.57;;;4.80;99.90;;;;;;4990153;28;20068;-61
2021/04/13 00:36:44;;;;;;;10.77;5.53;;;4.90;99.90;;;;;;4994567;28;20033;-58
2021/04/13 00:39:30;;;;;;;7.25;5.55;;;4.80;99.90;;;;;;4994088;28;20543;-59
2021/04/13 00:42:06;;;;;;;7.38;5.32;;;4.90;99.90;;;;;;5012250;28;20022;-58
2021/04/13 00:44:42;;;;;;;8.55;5.57;;;4.80;99.90;;;;;;4994143;28;20030;-59
2021/04/13 00:47:16;;;;;;;10.00;6.45;;;4.80;99.90;;;;;;5011000;28;20364;-59
2021/04/13 00:49:48;;;;;;;8.85;6.15;;;4.70;99.90;;;;;;5012057;28;20092;-59
2021/04/13 00:52:19;;;;;;;9.13;5.88;;;4.60;99.90;;;;;;4992758;28;20034;-59
2021/04/13 00:54:55;;;;;;;7.72;5.57;;;4.60;99.90;;;;;;5011958;28;20049;-59
2021/04/13 00:57:39;;;;;;;8.30;5.63;;;4.60;99.90;;;;;;4990269;28;20030;-59
2021/04/13 01:00:06;;;;;;;6.07;4.97;;;4.70;99.90;;;;;;5010833;28;20025;-59
2021/04/13 01:02:33;;;;;;;7.65;6.50;;;4.70;99.90;;;;;;4993978;28;20026;-58
2021/04/13 01:05:13;;;;;;;8.40;6.50;;;4.50;99.90;;;;;;4992681;28;20129;-60
2021/04/13 01:07:42;;;;;;;6.93;5.90;;;4.60;99.90;;;;;;4994066;28;20359;-59
2021/04/13 01:10:31;;;;;;;7.05;6.20;;;4.50;99.90;;;;;;4993138;28;20041;-60
2021/04/13 01:13:05;;;;;;;8.18;6.53;;;4.60;99.90;;;;;;4993495;28;20022;-59
2021/04/13 01:15:31;;;;;;;8.18;6.45;;;4.50;99.90;;;;;;4993807;28;20030;-60
2021/04/13 01:17:57;;;;;;;8.18;7.15;;;4.40;99.90;;;;;;4993631;28;20029;-59
2021/04/13 01:20:40;;;;;;;7.85;6.18;;;4.40;99.90;;;;;;4992900;28;20452;-59
2021/04/13 01:23:12;;;;;;;10.18;6.53;;;4.30;99.90;;;;;;5010273;28;20038;-60
2021/04/13 01:25:41;;;;;;;7.38;6.55;;;4.30;99.90;;;;;;5010946;28;20494;-58
2021/04/13 01:28:08;;;;;;;9.30;6.70;;;4.40;99.90;;;;;;5009797;28;20034;-59
2021/04/13 01:30:37;;;;;;;9.02;7.90;;;4.50;99.90;;;;;;4993406;28;20100;-59
2021/04/13 01:33:19;;;;;;;8.68;6.80;;;4.50;99.90;;;;;;4992802;28;20502;-59
2021/04/13 01:35:58;;;;;;;8.43;6.95;;;4.40;99.90;;;;;;5011202;28;20037;-60
2021/04/13 01:38:38;;;;;;;11.13;7.07;;;4.40;99.90;;;;;;4992428;28;20042;-59
2021/04/13 01:43:37;;;;;;;9.98;6.72;;;4.30;99.90;;;;;;5011013;28;20033;-58
2021/04/13 01:46:05;;;;;;;11.65;6.88;;;4.20;99.90;;;;;;4992042;28;20056;-61
2021/04/13 01:48:32;;;;;;;9.55;7.07;;;4.10;99.90;;;;;;4993007;28;20077;-58
2021/04/13 01:51:02;;;;;;;10.85;7.65;;;3.90;99.90;;;;;;4993124;28;20052;-58
2021/04/13 01:53:37;;;;;;;8.77;7.68;;;3.60;99.90;;;;;;4992955;28;20105;-60
2021/04/13 01:56:07;;;;;;;9.20;7.22;;;3.70;99.90;;;;;;5009730;28;20037;-59
2021/04/13 01:58:40;;;;;;;11.45;8.13;;;3.70;99.90;;;;;;4992944;28;20037;-58
2021/04/13 02:01:20;;;;;;;10.40;8.05;;;3.70;99.90;;;;;;4992330;28;20529;-57
2021/04/13 02:04:03;;;;;;;9.32;6.93;;;3.50;99.90;;;;;;4992892;28;20029;-59
2021/04/13 02:07:14;;;;;;;11.70;7.47;;;3.40;99.90;;;;;;4992516;28;20108;-59
2021/04/13 02:09:47;;;;;;;11.15;7.75;;;3.50;99.90;;;;;;4914626;29;20031;-58
2021/04/13 02:12:26;;;;;;;11.35;8.73;;;3.50;99.90;;;;;;5001310;28;20041;-59
2021/04/13 02:15:07;;;;;;;11.48;8.45;;;3.60;99.90;;;;;;4991824;28;20038;-59
2021/04/13 02:17:41;;;;;;;12.25;8.45;;;3.60;99.90;;;;;;4992704;28;20131;-59
2021/04/13 02:20:12;;;;;;;12.18;8.88;;;3.50;99.90;;;;;;5009949;28;20490;-60
2021/04/13 02:22:48;;;;;;;11.48;8.10;;;3.60;99.90;;;;;;5010788;28;20026;-59
2021/04/13 02:25:17;;;;;;;11.95;9.73;;;3.60;99.90;;;;;;4991511;28;20073;-59
2021/04/13 02:27:45;;;;;;;12.48;9.25;;;3.60;99.90;;;;;;4992094;28;20029;-58
2021/04/13 02:30:17;;;;;;;11.93;8.80;;;3.70;99.90;;;;;;4991692;28;20025;-59
2021/04/13 02:32:49;;;;;;;14.52;9.85;;;3.60;99.90;;;;;;4992668;28;20456;-59
2021/04/13 02:35:22;;;;;;;12.88;9.20;;;3.60;99.90;;;;;;4991821;28;20042;-59
2021/04/13 02:38:02;;;;;;;10.90;8.40;;;3.60;99.90;;;;;;5010474;28;20036;-59
2021/04/13 02:41:08;;;;;;;12.60;9.18;;;3.60;99.90;;;;;;4991663;28;20030;-58
2021/04/13 02:43:42;;;;;;;12.43;9.27;;;3.70;99.90;;;;;;4970946;28;20034;-59
2021/04/13 02:46:15;;;;;;;12.90;9.70;;;3.70;99.90;;;;;;5009055;28;20058;-59
2021/04/13 02:48:44;;;;;;;13.50;8.60;;;3.80;99.90;;;;;;5009936;28;20025;-58
2021/04/13 02:51:12;;;;;;;16.05;10.57;;;3.70;99.90;;;;;;5009271;28;20534;-59
2021/04/13 02:53:47;;;;;;;12.07;9.50;;;3.70;99.90;;;;;;4991964;28;20037;-58
2021/04/13 02:56:18;;;;;;;34.42;22.55;;;3.50;99.90;;;;;;5008577;28;20379;-59
2021/04/13 02:59:11;;;;;;;22.80;16.00;;;3.50;99.90;;;;;;4992244;28;20036;-58
2021/04/13 03:01:40;;;;;;;15.85;11.90;;;3.50;99.90;;;;;;4992525;28;20172;-58
2021/04/13 03:04:08;;;;;;;15.32;10.68;;;3.50;99.90;;;;;;5008810;28;20395;-59
2021/04/13 03:06:44;;;;;;;15.88;10.63;;;3.50;99.90;;;;;;5009861;28;20040;-59
2021/04/13 03:09:12;;;;;;;15.02;10.15;;;3.50;99.90;;;;;;5009065;28;20141;-61
2021/04/13 03:11:46;;;;;;;16.30;11.57;;;3.50;99.90;;;;;;4991107;28;20499;-58
2021/04/13 03:14:14;;;;;;;13.38;11.40;;;3.40;99.90;;;;;;4991067;28;20022;-59
2021/04/13 03:16:43;;;;;;;16.80;10.63;;;3.50;99.90;;;;;;4991717;28;20025;-59
2021/04/13 03:19:16;;;;;;;16.17;10.35;;;3.50;99.90;;;;;;4991425;28;20026;-60
2021/04/13 03:21:47;;;;;;;13.48;10.38;;;3.50;99.90;;;;;;5009627;28;20022;-58
2021/04/13 03:24:18;;;;;;;16.23;11.38;;;3.60;99.90;;;;;;4991209;28;20029;-59
2021/04/13 03:26:49;;;;;;;17.02;10.93;;;3.50;99.90;;;;;;4991152;28;20034;-58
2021/04/13 03:29:27;;;;;;;14.95;11.02;;;3.40;99.90;;;;;;4994408;28;20022;-59
2021/04/13 03:31:55;;;;;;;14.05;11.57;;;3.40;99.90;;;;;;4995538;28;20030;-58
2021/04/13 03:34:22;;;;;;;16.27;11.77;;;3.50;99.90;;;;;;4977551;28;20030;-59
2021/04/13 03:36:49;;;;;;;12.07;10.00;;;3.40;99.90;;;;;;4974952;28;20030;-58
2021/04/13 03:39:36;;;;;;;14.75;10.65;;;3.30;99.90;;;;;;4974851;28;20034;-59
2021/04/13 03:42:05;;;;;;;16.27;11.18;;;3.30;99.90;;;;;;4992808;28;20033;-59
2021/04/13 03:44:32;;;;;;;16.73;11.25;;;3.30;99.90;;;;;;4992067;28;20509;-58
2021/04/13 03:46:58;;;;;;;14.68;11.50;;;3.30;99.90;;;;;;4992949;28;20053;-59
2021/04/13 03:49:30;;;;;;;18.35;11.35;;;3.40;99.90;;;;;;4992230;28;20026;-59
2021/04/13 03:51:59;;;;;;;;;;;3.20;99.90;;;;;;4975885;28;20034;-58
2021/04/13 03:54:28;;;;;;;16.85;11.23;;;3.30;99.90;;;;;;4992288;28;19909;-58
2021/04/13 03:56:54;;;;;;;14.98;11.15;;;3.30;99.90;;;;;;4992654;28;20062;-58
2021/04/13 03:59:25;;;;;;;16.95;10.75;;;3.20;99.90;;;;;;4974730;28;20046;-59
2021/04/13 04:01:51;;;;;;;13.90;10.07;;;3.00;99.90;;;;;;4992538;28;20133;-59
2021/04/13 04:04:35;;;;;;;12.18;10.10;;;3.00;99.90;;;;;;5008596;28;20091;-58
2021/04/13 04:07:27;;;;;;;15.48;11.15;;;2.90;99.90;;;;;;5012408;28;20029;-58
2021/04/13 04:09:53;;;;;;;17.48;10.98;;;3.00;99.90;;;;;;4994860;28;20045;-58
2021/04/13 04:12:24;;;;;;;13.63;10.75;;;3.00;99.90;;;;;;5010557;28;20030;-58
2021/04/13 04:15:11;;;;;;;14.68;11.40;;;3.00;99.90;;;;;;5012123;28;20371;-58
2021/04/13 04:17:46;;;;;;;15.35;10.98;;;2.90;99.90;;;;;;4994531;28;20037;-58
2021/04/13 04:20:14;;;;;;;13.85;10.75;;;2.80;99.90;;;;;;4994075;28;20033;-60
2021/04/13 04:22:51;;;;;;;18.38;11.57;;;2.90;99.90;;;;;;5011347;28;20029;-59
2021/04/13 04:25:36;;;;;;;17.52;12.18;;;2.90;99.90;;;;;;4993245;28;20026;-59
2021/04/13 04:28:17;;;;;;;14.90;11.05;;;2.80;99.90;;;;;;4994177;28;20037;-59
2021/04/13 04:30:43;;;;;;;15.02;11.40;;;2.80;99.90;;;;;;5012099;28;20030;-59
2021/04/13 04:33:34;;;;;;;15.52;10.90;;;3.00;99.90;;;;;;5011991;28;20109;-58
2021/04/13 04:36:00;;;;;;;15.57;11.25;;;2.90;99.90;;;;;;4993961;28;20056;-58
2021/04/13 04:38:31;;;;;;;15.43;11.00;;;2.90;99.90;;;;;;4992953;28;20462;-58
2021/04/13 04:41:01;;;;;;;13.48;10.48;;;3.00;99.90;;;;;;5008371;28;20022;-58
2021/04/13 04:43:45;;;;;;;17.52;12.05;;;3.00;99.90;;;;;;5011124;28;20169;-58
2021/04/13 04:46:29;;;;;;;14.75;10.68;;;3.10;99.90;;;;;;4990029;28;20046;-59
2021/04/13 04:49:07;;;;;;;17.45;12.82;;;3.10;99.90;;;;;;4990837;28;20092;-59
2021/04/13 04:51:33;;;;;;;17.92;11.88;;;3.10;99.90;;;;;;4989752;28;20638;-58
2021/04/13 04:53:58;;;;;;;15.60;11.57;;;3.30;99.90;;;;;;4990450;28;20033;-59
2021/04/13 04:56:24;;;;;;;15.77;11.90;;;3.40;99.90;;;;;;4988919;28;20372;-59
2021/04/13 04:58:50;;;;;;;16.58;12.52;;;3.30;99.90;;;;;;4990161;28;20113;-59
2021/04/13 05:01:16;;;;;;;16.92;11.43;;;3.40;99.90;;;;;;4989649;28;20027;-60
2021/04/13 05:03:42;;;;;;;16.23;12.40;;;3.50;99.90;;;;;;4978794;28;20456;-58
2021/04/13 05:06:09;;;;;;;19.02;12.00;;;3.40;99.90;;;;;;4970676;28;20164;-59
2021/04/13 05:08:35;;;;;;;17.17;11.43;;;3.50;99.90;;;;;;4970146;28;20103;-60
2021/04/13 05:11:01;;;;;;;17.73;11.60;;;3.50;99.90;;;;;;4970435;28;20110;-59
2021/04/13 05:13:27;;;;;;;15.88;12.35;;;3.50;99.90;;;;;;4970938;28;20031;-58
2021/04/13 05:15:53;;;;;;;17.00;11.68;;;3.60;99.90;;;;;;4971008;28;20101;-59
2021/04/13 05:18:19;;;;;;;16.15;12.40;;;3.60;99.90;;;;;;4970693;28;20484;-58
2021/04/13 05:20:46;;;;;;;19.55;13.43;;;3.70;99.90;;;;;;4970445;28;20346;-58
2021/04/13 05:23:12;;;;;;;16.65;12.45;;;3.80;99.90;;;;;;4971204;28;20105;-59
2021/04/13 05:25:38;;;;;;;17.25;12.70;;;3.90;99.90;;;;;;4972199;28;20479;-59
2021/04/13 05:28:04;;;;;;;18.38;12.13;;;3.90;99.90;;;;;;4972177;28;20039;-58
2021/04/13 05:30:30;;;;;;;16.38;12.95;;;3.90;99.90;;;;;;4969916;28;20052;-59
2021/04/13 05:32:56;;;;;;;20.10;13.32;;;3.90;99.90;;;;;;4975178;28;20030;-58
2021/04/13 05:35:23;;;;;;;17.75;12.88;;;4.00;99.90;;;;;;4991103;28;20038;-59
2021/04/13 05:37:49;;;;;;;19.33;12.43;;;4.10;99.90;;;;;;4990388;28;20038;-58
2021/04/13 05:40:29;;;;;;;17.63;12.93;;;4.30;99.90;;;;;;4990031;28;20031;-61
2021/04/13 05:42:57;;;;;;;18.02;13.75;;;4.40;99.90;;;;;;4991697;28;20023;-59
2021/04/13 05:45:29;;;;;;;18.55;13.18;;;4.60;99.90;;;;;;4989361;28;20055;-58
2021/04/13 05:47:56;;;;;;;;;;;4.60;99.90;;;;;;4992251;28;20026;-57
2021/04/13 05:50:28;;;;;;;16.63;11.82;;;4.70;99.90;;;;;;4989048;28;19906;-58
2021/04/13 05:52:54;;;;;;;18.05;13.05;;;4.70;99.90;;;;;;4990680;28;20038;-59
2021/04/13 05:55:20;;;;;;;21.65;13.25;;;4.70;99.90;;;;;;4988860;28;20492;-60
2021/04/13 05:57:49;;;;;;;22.80;12.93;;;4.60;99.90;;;;;;4989044;28;20056;-59
2021/04/13 06:00:15;;;;;;;21.15;13.75;;;4.60;99.90;;;;;;4989457;28;20038;-59
2021/04/13 06:02:42;;;;;;;18.90;12.95;;;4.80;99.90;;;;;;4985771;28;20062;-59
2021/04/13 06:05:12;;;;;;;15.65;12.25;;;4.60;99.90;;;;;;4971181;28;20030;-59
2021/04/13 06:07:37;;;;;;;20.55;13.38;;;4.40;99.90;;;;;;4968272;28;20033;-58
2021/04/13 06:10:05;;;;;;;20.75;13.70;;;4.60;99.90;;;;;;4970832;28;20054;-60
2021/04/13 06:12:31;;;;;;;21.30;12.57;;;4.80;99.90;;;;;;4970366;28;20027;-59
2021/04/13 06:14:57;;;;;;;18.77;13.10;;;5.00;99.90;;;;;;4969564;28;20041;-58
2021/04/13 06:17:23;;;;;;;19.88;15.10;;;5.10;99.90;;;;;;4968874;28;20023;-59
2021/04/13 06:19:48;;;;;;;17.90;13.13;;;5.10;99.90;;;;;;4969778;28;20495;-59
2021/04/13 06:22:14;;;;;;;19.10;12.85;;;5.10;99.90;;;;;;4969601;28;20031;-59
2021/04/13 06:24:40;;;;;;;22.45;13.93;;;5.30;99.90;;;;;;4969106;28;20035;-59
2021/04/13 06:27:07;;;;;;;22.65;13.88;;;5.40;99.90;;;;;;4971194;28;20056;-58
2021/04/13 06:29:35;;;;;;;18.20;13.30;;;5.60;99.90;;;;;;4968721;28;20031;-59
2021/04/13 06:32:02;;;;;;;25.02;15.40;;;5.90;99.90;;;;;;4971285;28;20033;-59
2021/04/13 06:34:28;;;;;;;20.08;13.68;;;6.00;99.90;;;;;;4983716;28;20125;-58
2021/04/13 06:36:55;;;;;;;26.50;14.85;;;6.20;99.90;;;;;;4969983;28;20404;-59
2021/04/13 06:39:21;;;;;;;19.98;13.85;;;6.50;99.90;;;;;;4968579;28;20050;-60
2021/04/13 06:42:00;;;;;;;17.70;13.20;;;6.70;99.90;;;;;;4970028;28;20038;-59
2021/04/13 06:45:02;;;;;;;20.52;14.00;;;6.40;99.90;;;;;;4968120;28;20360;-59
2021/04/13 06:47:36;;;;;;;19.95;14.07;;;6.50;99.90;;;;;;4984889;28;20113;-59
2021/04/13 06:50:20;;;;;;;17.75;12.68;;;6.90;99.80;;;;;;4985657;28;20076;-59
2021/04/13 06:53:00;;;;;;;16.98;12.48;;;6.70;99.40;;;;;;4985282;28;20046;-58
2021/04/13 06:55:41;;;;;;;18.48;12.30;;;7.00;98.00;;;;;;4984856;28;20046;-59
2021/04/13 06:58:07;;;;;;;20.13;12.35;;;7.10;97.90;;;;;;4969502;28;20337;-59
2021/04/13 07:00:46;;;;;;;16.70;11.27;;;7.00;98.00;;;;;;4970333;28;20149;-58
2021/04/13 07:03:31;;;;;;;16.63;10.52;;;7.30;97.00;;;;;;4988111;28;20494;-59
2021/04/13 07:06:29;;;;;;;15.35;10.90;;;7.40;96.50;;;;;;4989495;28;20090;-59
2021/04/13 07:08:59;;;;;;;18.23;11.73;;;7.60;97.00;;;;;;4972583;28;20169;-60
2021/04/13 07:12:03;;;;;;;18.73;11.65;;;7.70;96.10;;;;;;4971692;28;20026;-60
2021/04/13 07:14:37;;;;;;;15.68;10.13;;;8.10;95.30;;;;;;4972913;28;20481;-59
2021/04/13 07:17:10;;;;;;;16.80;10.75;;;8.20;94.30;;;;;;4973256;28;20109;-59
2021/04/13 07:19:49;;;;;;;16.42;9.20;;;8.40;94.30;;;;;;4973241;28;20031;-60
2021/04/13 07:22:35;;;;;;;21.92;9.80;;;8.80;93.90;;;;;;4974329;28;20068;-59
2021/04/13 07:25:20;;;;;;;16.70;9.82;;;9.20;94.30;;;;;;4969150;28;20031;-60
2021/04/13 07:27:59;;;;;;;9.48;4.93;;;9.10;94.60;;;;;;4972142;28;20170;-62
2021/04/13 07:30:43;;;;;;;12.30;6.57;;;10.10;99.90;;;;;;4971199;28;20131;-63
2021/04/13 07:33:18;;;;;;;8.20;3.72;;;12.00;99.90;;;;;;4979615;28;20057;-62
2021/04/13 07:35:45;;;;;;;15.40;8.23;;;12.90;99.30;;;;;;4992451;28;20108;-59
2021/04/13 07:38:31;;;;;;;10.38;7.72;;;12.50;79.20;;;;;;4993006;28;20042;-59
2021/04/13 07:41:05;;;;;;;13.40;8.40;;;11.70;77.10;;;;;;4992019;28;20026;-63
2021/04/13 07:43:37;;;;;;;11.85;7.38;;;11.20;78.40;;;;;;4992716;28;20041;-61
2021/04/13 07:46:21;;;;;;;;;;;10.60;80.70;;;;;;4991930;28;20065;-62
2021/04/13 07:49:05;;;;;;;17.10;8.55;;;10.50;80.00;;;;;;4991286;28;19985;-61
2021/04/13 07:51:46;;;;;;;14.25;9.18;;;10.80;81.20;;;;;;4990781;28;20062;-60
2021/04/13 07:54:24;;;;;;;14.73;8.07;;;10.60;80.80;;;;;;4991712;28;20467;-60
2021/04/13 07:57:06;;;;;;;10.80;7.00;;;10.20;82.20;;;;;;4991427;28;20277;-59
2021/04/13 08:00:00;;;;;;;13.23;8.15;;;10.50;80.30;;;;;;4991539;28;20034;-60
2021/04/13 08:02:25;;;;;;;14.00;7.28;;;11.20;78.60;;;;;;4991202;28;20034;-62
2021/04/13 08:04:54;;;;;;;16.80;8.45;;;11.40;76.30;;;;;;4991577;28;20034;-62
2021/04/13 08:07:34;;;;;;;16.23;9.15;;;11.10;84.30;;;;;;4991390;28;20022;-61
2021/04/13 08:10:03;;;;;;;12.02;7.40;;;11.40;92.40;;;;;;4991231;28;20038;-60
2021/04/13 08:12:48;;;;;;;11.27;6.32;;;11.40;83.50;;;;;;4991377;28;20038;-62
2021/04/13 08:15:19;;;;;;;8.02;5.63;;;11.80;81.10;;;;;;4990924;28;20034;-61
2021/04/13 08:18:08;;;;;;;8.10;4.13;;;12.10;79.10;;;;;;4991778;28;20460;-62
2021/04/13 08:20:37;;;;;;;6.40;4.03;;;12.30;72.60;;;;;;4990408;28;20445;-60
2021/04/13 08:23:08;;;;;;;9.82;4.63;;;12.50;71.40;;;;;;4992183;28;20038;-59
2021/04/13 08:25:39;;;;;;;12.17;5.33;;;12.00;68.10;;;;;;4989859;28;20126;-59
2021/04/13 08:28:09;;;;;;;6.13;3.40;;;12.20;68.60;;;;;;4990795;28;20270;-60
2021/04/13 08:34:22;;;;;;;17.43;5.47;;;12.00;68.00;;;;;;4991982;28;20454;-61
2021/04/13 08:36:52;;;;;;;7.03;5.00;;;12.80;68.50;;;;;;4989867;28;20093;-59
2021/04/13 08:39:36;;;;;;;9.38;5.15;;;13.00;67.50;;;;;;4992623;28;20038;-59
2021/04/13 08:42:08;;;;;;;7.15;4.38;;;13.20;65.90;;;;;;4992194;28;20050;-59
2021/04/13 08:45:14;;;;;;;5.07;4.28;;;13.70;64.90;;;;;;4990779;28;20038;-59
2021/04/13 08:48:11;;;;;;;6.47;3.83;;;13.50;62.80;;;;;;4991111;28;20042;-60
2021/04/13 08:50:49;;;;;;;9.30;5.60;;;13.50;62.80;;;;;;4988926;28;20073;-60
2021/04/13 08:53:39;;;;;;;9.90;4.80;;;12.90;63.40;;;;;;4989986;28;20081;-60
2021/04/13 08:56:17;;;;;;;11.18;5.30;;;12.50;66.20;;;;;;4988143;28;20117;-60
2021/04/13 08:58:50;;;;;;;6.80;4.85;;;12.80;65.50;;;;;;4989123;28;20117;-60
2021/04/13 09:01:25;;;;;;;8.65;5.63;;;13.20;64.30;;;;;;4989903;28;20467;-59
2021/04/13 09:03:51;;;;;;;7.75;4.72;;;13.50;64.10;;;;;;4989349;28;20056;-59
2021/04/13 09:06:41;;;;;;;8.43;4.40;;;13.30;63.90;;;;;;4989866;28;20039;-59
2021/04/13 09:09:15;;;;;;;6.45;3.97;;;14.10;63.10;;;;;;4992100;28;20034;-60
2021/04/13 09:11:49;;;;;;;6.90;4.07;;;14.00;61.90;;;;;;4989657;28;20137;-60
2021/04/13 09:14:33;;;;;;;7.78;4.18;;;14.20;59.30;;;;;;4989691;28;20022;-60
2021/04/13 09:17:21;;;;;;;5.25;3.58;;;14.50;60.00;;;;;;4989763;28;20045;-60
2021/04/13 09:19:55;;;;;;;9.05;4.38;;;15.40;57.20;;;;;;4990268;28;20080;-61
2021/04/13 09:22:34;;;;;;;11.50;4.82;;;15.10;56.60;;;;;;4989990;28;20030;-60
2021/04/13 09:25:06;;;;;;;12.65;5.03;;;14.80;57.20;;;;;;4989122;28;20042;-59
2021/04/13 09:27:45;;;;;;;8.75;5.07;;;14.50;56.80;;;;;;4988680;28;20065;-61
2021/04/13 09:30:25;;;;;;;7.43;4.43;;;14.00;58.80;;;;;;4990840;28;20068;-60
2021/04/13 09:33:04;;;;;;;7.13;5.60;;;13.30;60.00;;;;;;4963783;28;20515;-59
2021/04/13 09:35:37;;;;;;;8.48;5.97;;;12.90;61.80;;;;;;4933598;29;20431;-60
2021/04/13 09:38:40;;;;;;;8.05;5.30;;;12.60;63.10;;;;;;4949951;29;20146;-59
2021/04/13 09:41:27;;;;;;;12.80;4.80;;;12.20;64.50;;;;;;4949931;29;20039;-59
2021/04/13 09:44:08;;;;;;;7.88;3.70;;;12.30;64.00;;;;;;4948913;29;20035;-60
2021/04/13 09:47:09;;;;;;;8.35;3.65;;;12.90;63.50;;;;;;4934441;29;20082;-60
2021/04/13 09:49:59;;;;;;;8.13;3.17;;;13.10;62.70;;;;;;4913660;29;20031;-59
2021/04/13 09:52:44;;;;;;;4.60;1.58;;;14.10;60.40;;;;;;4930932;29;20036;-59
2021/04/13 09:55:32;;;;;;;17.13;2.33;;;14.40;57.00;;;;;;4930568;29;20058;-59
2021/04/13 09:58:29;;;;;;;7.72;1.50;;;13.90;57.00;;;;;;4929886;29;20476;-59
2021/04/13 10:01:10;;;;;;;7.85;1.10;;;13.30;57.10;;;;;;4911534;29;20036;-59
2021/04/13 10:04:00;;;;;;;8.68;1.55;;;12.30;57.00;;;;;;4924509;29;20044;-61
2021/04/13 10:06:37;;;;;;;4.68;1.73;;;12.00;59.80;;;;;;4949807;29;20079;-60
2021/04/13 10:09:25;;;;;;;2.42;0.73;;;12.20;59.60;;;;;;4950128;29;20042;-60
2021/04/13 10:12:00;;;;;;;3.47;0.75;;;12.50;58.80;;;;;;4985722;28;20106;-61
2021/04/13 10:15:06;;;;;;;5.15;0.90;;;13.00;57.80;;;;;;4970448;28;20049;-61
2021/04/13 10:17:41;;;;;;;2.75;0.95;;;13.50;56.30;;;;;;4970921;28;20038;-61
2021/04/13 10:20:20;;;;;;;1.65;0.63;;;13.40;55.70;;;;;;4985586;28;20027;-59
2021/04/13 10:23:14;;;;;;;7.38;0.88;;;13.70;55.80;;;;;;4985029;28;20030;-60
2021/04/13 10:26:07;;;;;;;2.83;0.80;;;14.50;54.40;;;;;;4984990;28;20116;-59
2021/04/13 10:29:34;;;;;;;5.63;1.00;;;15.20;53.00;;;;;;4985365;28;20032;-61
2021/04/13 10:32:29;;;;;;;1.98;0.80;;;15.20;50.20;;;;;;4958955;28;20070;-59
2021/04/13 10:35:22;;;;;;;2.20;1.20;;;15.10;53.80;;;;;;4969982;28;20035;-60
2021/04/13 10:38:28;;;;;;;9.90;1.15;;;14.90;54.10;;;;;;4973873;28;20039;-68
2021/04/13 10:41:28;;;;;;;4.13;2.20;;;15.00;55.20;;;;;;4974144;28;20066;-66
2021/04/13 10:44:14;;;;;;;4.95;1.70;;;14.40;58.80;;;;;;4989012;28;20494;-60
2021/04/13 10:47:01;;;;;;;3.22;1.42;;;14.50;55.90;;;;;;5000652;28;20140;-60
2021/04/13 10:49:51;;;;;;;2.63;1.58;;;13.90;55.80;;;;;;4983792;28;20041;-61
2021/04/13 10:52:50;;;;;;;4.72;1.15;;;13.50;55.80;;;;;;4999119;28;20022;-61
2021/04/13 10:55:42;;;;;;;3.08;1.90;;;13.70;55.90;;;;;;4995754;28;20474;-59
2021/04/13 10:58:43;;;;;;;4.10;1.70;;;13.10;57.50;;;;;;4996066;28;20125;-59
2021/04/13 11:01:30;;;;;;;5.13;1.83;;;12.90;57.70;;;;;;5012994;28;20038;-59
2021/04/13 11:04:36;;;;;;;3.67;1.77;;;12.40;60.00;;;;;;4996646;28;20030;-59
2021/04/13 11:07:39;;;;;;;6.68;1.98;;;12.40;59.10;;;;;;4976533;28;20043;-60
2021/04/13 11:10:55;;;;;;;3.03;1.65;;;12.40;60.80;;;;;;4981717;28;20034;-60
2021/04/13 11:13:50;;;;;;;4.65;2.50;;;13.40;59.60;;;;;;4995060;28;20026;-59
2021/04/13 11:16:45;;;;;;;3.78;1.52;;;14.40;59.30;;;;;;5013343;28;20088;-60
2021/04/13 11:19:20;;;;;;;4.03;2.00;;;14.80;55.60;;;;;;4995985;28;20026;-60
2021/04/13 11:22:00;;;;;;;5.25;1.13;;;14.60;53.20;;;;;;4994853;28;20022;-60
2021/04/13 11:24:44;;;;;;;2.83;1.10;;;14.20;52.80;;;;;;4995112;28;20173;-60
2021/04/13 11:27:18;;;;;;;1.63;1.02;;;13.40;54.00;;;;;;4995868;28;20522;-59
2021/04/13 11:30:08;;;;;;;3.17;1.40;;;13.00;56.50;;;;;;4994718;28;20022;-60
2021/04/13 11:33:22;;;;;;;5.78;1.25;;;12.70;58.90;;;;;;4995324;28;20049;-63
2021/04/13 11:35:54;;;;;;;4.15;1.15;;;12.30;59.60;;;;;;4994751;28;20447;-60
2021/04/13 11:38:35;;;;;;;6.05;2.20;;;12.10;62.50;;;;;;5013033;28;20152;-61
2021/04/13 11:41:04;;;;;;;;;;;12.20;62.70;;;;;;5012750;28;20121;-59
2021/04/13 11:43:36;;;;;;;3.55;1.63;;;12.00;61.40;;;;;;4974814;28;19921;-61
2021/04/13 11:46:16;;;;;;;8.57;2.08;;;11.90;62.70;;;;;;4974811;28;20057;-59
2021/04/13 11:48:51;;;;;;;3.58;1.67;;;11.70;63.90;;;;;;4974071;28;20113;-60
2021/04/13 11:51:30;;;;;;;7.45;2.88;;;11.60;64.50;;;;;;4975263;28;20522;-60
2021/04/13 11:54:16;;;;;;;5.55;2.25;;;11.90;63.60;;;;;;4992119;28;20534;-59
2021/04/13 11:56:58;;;;;;;7.90;2.65;;;12.20;63.70;;;;;;4992030;28;20045;-59
2021/04/13 11:59:25;;;;;;;4.13;2.05;;;12.40;62.10;;;;;;4974859;28;20420;-60
2021/04/13 12:01:58;;;;;;;9.48;1.90;;;12.90;61.30;;;;;;4974607;28;20045;-61
2021/04/13 12:04:54;;;;;;;3.97;1.38;;;13.30;60.80;;;;;;4992577;28;20467;-60
2021/04/13 12:07:43;;;;;;;6.80;2.10;;;13.40;61.80;;;;;;5005674;28;20117;-60
2021/04/13 12:10:20;;;;;;;7.80;2.90;;;13.50;60.40;;;;;;5013371;28;20053;-62
2021/04/13 12:12:47;;;;;;;7.60;2.13;;;13.50;60.40;;;;;;5027997;28;20029;-60
2021/04/13 12:15:14;;;;;;;4.00;2.33;;;13.50;59.70;;;;;;5013031;28;20037;-59
2021/04/13 12:17:49;;;;;;;3.92;1.67;;;13.30;58.70;;;;;;5004528;28;20050;-62
2021/04/13 12:20:23;;;;;;;4.07;1.30;;;13.10;58.40;;;;;;5011531;28;20065;-60
2021/04/13 12:22:57;;;;;;;5.78;1.85;;;12.70;58.60;;;;;;5030657;28;20044;-59
2021/04/13 12:25:50;;;;;;;6.60;1.80;;;12.60;58.90;;;;;;5031294;28;20037;-60
2021/04/13 12:28:34;;;;;;;3.08;1.10;;;12.30;59.20;;;;;;5031386;28;20041;-60
2021/04/13 12:31:05;;;;;;;4.18;0.93;;;12.20;58.30;;;;;;5030046;28;20029;-60
2021/04/13 12:33:31;;;;;;;2.85;1.00;;;12.10;57.20;;;;;;5025085;28;20475;-60
2021/04/13 12:36:06;;;;;;;2.88;1.50;;;12.00;56.90;;;;;;5003920;28;20051;-62
2021/04/13 12:38:45;;;;;;;4.78;0.93;;;11.90;56.80;;;;;;4994519;28;20029;-60
2021/04/13 12:41:11;;;;;;;4.53;1.02;;;11.60;57.30;;;;;;5012305;28;20033;-60
2021/04/13 12:43:44;;;;;;;7.03;1.15;;;11.50;57.60;;;;;;4995945;28;20424;-64
2021/04/13 12:46:31;;;;;;;5.38;1.48;;;11.50;57.90;;;;;;5009099;28;20145;-62
2021/04/13 12:49:02;;;;;;;2.90;1.25;;;11.60;57.80;;;;;;4991502;28;20041;-61
2021/04/13 12:52:07;;;;;;;4.95;1.10;;;11.80;57.40;;;;;;5009705;28;20601;-63
2021/04/13 12:54:41;;;;;;;3.75;1.00;;;11.70;57.20;;;;;;4991901;28;20026;-62
2021/04/13 12:57:23;;;;;;;3.30;1.08;;;11.40;57.50;;;;;;4991769;28;20030;-61
2021/04/13 12:59:52;;;;;;;4.00;1.92;;;11.50;57.20;;;;;;4990352;28;20084;-62
2021/04/13 13:02:37;;;;;;;9.52;1.77;;;11.50;58.20;;;;;;4991555;28;20040;-63
2021/04/13 13:05:25;;;;;;;9.38;2.38;;;11.50;58.00;;;;;;4991101;28;20042;-62
2021/04/13 13:08:04;;;;;;;5.07;1.23;;;11.40;57.50;;;;;;4990529;28;20092;-61
2021/04/13 13:10:35;;;;;;;2.58;1.02;;;11.30;58.50;;;;;;4991783;28;20033;-61
2021/04/13 13:13:10;;;;;;;3.50;1.08;;;11.60;58.10;;;;;;4991113;28;20101;-61
2021/04/13 13:15:38;;;;;;;3.33;1.02;;;11.70;57.50;;;;;;5009673;28;20091;-59
2021/04/13 13:18:38;;;;;;;3.72;1.33;;;12.00;55.20;;;;;;5008663;28;20448;-61
2021/04/13 13:21:07;;;;;;;2.15;1.00;;;12.20;54.70;;;;;;4976608;28;20042;-61
2021/04/13 13:23:39;;;;;;;2.67;0.70;;;12.60;54.80;;;;;;4991277;28;20030;-64
2021/04/13 13:26:18;;;;;;;4.55;1.40;;;12.40;54.30;;;;;;5008274;28;20137;-61
2021/04/13 13:28:44;;;;;;;1.42;0.70;;;11.90;56.40;;;;;;4990834;28;20037;-62
2021/04/13 13:31:26;;;;;;;5.10;0.90;;;12.50;54.40;;;;;;4990656;28;20030;-63
2021/04/13 13:34:12;;;;;;;2.85;0.57;;;12.90;52.70;;;;;;4990751;28;20395;-61
2021/04/13 13:36:41;;;;;;;3.80;1.52;;;12.60;49.70;;;;;;4990829;28;20105;-64
2021/04/13 13:39:17;;;;;;;1.73;0.50;;;12.40;50.40;;;;;;5008992;28;20456;-60
2021/04/13 13:41:47;;;;;;;1.83;0.70;;;12.30;51.20;;;;;;4989756;28;20029;-60